Time;durP1;ratioP1;P1;durP2;ratioP2;P2;SDS_P1;SDS_P2;PMS_P1;PMS_P2;Temp;Humidity;BMP_temperature;BMP_pressure;BME280_temperature;BME280_humidity;BME280_pressure;Samples;Min_cycle;Max_cycle;Signal;HPM_P1;HPM_P2
2023/12/03 00:00:08;;;;;;;11.50;5.43;;;;;;;;;;5064048;28;20028;-41
2023/12/03 00:02:34;;;;;;;24.90;8.40;;;;;;;;;;5066306;28;20421;-40
2023/12/03 00:04:59;;;;;;;15.55;6.65;;;;;;;;;;5066969;28;20119;-41
2023/12/03 00:07:25;;;;;;;24.50;9.05;;;;;;;;;;5066711;28;20367;-40
2023/12/03 00:09:51;;;;;;;24.27;9.10;;;;;;;;;;5068261;28;20029;-40
2023/12/03 00:12:16;;;;;;;24.58;10.07;;;;;;;;;;5065789;28;20140;-41
2023/12/03 00:14:41;;;;;;;25.92;9.50;;;;;;;;;;5063766;28;20027;-40
2023/12/03 00:17:07;;;;;;;20.45;8.32;;;;;;;;;;5065885;28;20487;-40
2023/12/03 00:19:32;;;;;;;23.58;8.65;;;;;;;;;;5054247;28;20029;-41
2023/12/03 00:21:57;;;;;;;25.13;9.68;;;;;;;;;;5067514;28;20442;-40
2023/12/03 00:24:23;;;;;;;21.13;8.45;;;;;;;;;;5064939;28;20033;-39
2023/12/03 00:26:48;;;;;;;19.98;8.32;;;;;;;;;;5063931;28;20070;-40
2023/12/03 00:29:13;;;;;;;19.30;7.95;;;;;;;;;;5050301;28;20036;-39
2023/12/03 00:31:39;;;;;;;16.23;7.32;;;;;;;;;;5045177;28;20084;-40
2023/12/03 00:34:04;;;;;;;18.70;8.27;;;;;;;;;;5066640;28;20065;-40
2023/12/03 00:36:30;;;;;;;22.25;6.85;;;;;;;;;;5067097;28;20040;-37
2023/12/03 00:38:56;;;;;;;17.55;5.55;;;;;;;;;;5049228;28;20040;-42
2023/12/03 00:41:21;;;;;;;13.82;4.78;;;;;;;;;;5052132;28;20483;-40
2023/12/03 00:43:46;;;;;;;19.92;8.82;;;;;;;;;;5051509;28;20364;-39
2023/12/03 00:46:11;;;;;;;20.65;8.40;;;;;;;;;;5064250;28;20486;-40
2023/12/03 00:48:38;;;;;;;12.70;6.00;;;;;;;;;;5047562;28;20027;-40
2023/12/03 00:51:03;;;;;;;13.25;3.50;;;;;;;;;;5047861;28;21150;-39
2023/12/03 00:53:28;;;;;;;16.02;7.07;;;;;;;;;;5062283;28;20020;-39
2023/12/03 00:55:54;;;;;;;16.30;6.50;;;;;;;;;;5061698;28;20051;-37
2023/12/03 00:58:19;;;;;;;11.52;5.38;;;;;;;;;;5047778;28;20028;-40
2023/12/03 01:00:45;;;;;;;13.68;5.47;;;;;;;;;;5065548;28;20530;-39
2023/12/03 01:03:10;;;;;;;9.88;5.78;;;;;;;;;;5066306;28;20025;-40
2023/12/03 01:05:35;;;;;;;10.90;5.47;;;;;;;;;;5065477;28;20499;-40
2023/12/03 01:08:01;;;;;;;13.68;4.20;;;;;;;;;;5065091;28;20031;-38
2023/12/03 01:10:26;;;;;;;7.47;3.08;;;;;;;;;;5062598;28;20048;-39
2023/12/03 01:12:51;;;;;;;9.63;4.60;;;;;;;;;;5067077;28;20510;-39
2023/12/03 01:15:16;;;;;;;10.13;4.78;;;;;;;;;;5064731;28;20024;-39
2023/12/03 01:17:42;;;;;;;9.00;4.28;;;;;;;;;;5040901;28;20021;-40
2023/12/03 01:20:07;;;;;;;9.93;3.92;;;;;;;;;;5064238;28;20020;-37
2023/12/03 01:22:33;;;;;;;10.10;4.50;;;;;;;;;;5065131;28;20127;-40
2023/12/03 01:24:58;;;;;;;8.73;3.97;;;;;;;;;;5066523;28;20016;-39
2023/12/03 01:27:23;;;;;;;9.98;4.40;;;;;;;;;;5055146;28;20021;-39
2023/12/03 01:29:50;;;;;;;5.47;2.72;;;;;;;;;;5064423;28;20059;-40
2023/12/03 01:32:15;;;;;;;3.58;1.98;;;;;;;;;;5062164;28;20020;-40
2023/12/03 01:34:40;;;;;;;8.38;4.03;;;;;;;;;;5066727;28;20438;-40
2023/12/03 01:37:06;;;;;;;8.43;4.47;;;;;;;;;;5062856;28;20028;-39
2023/12/03 01:39:31;;;;;;;10.57;4.05;;;;;;;;;;5068452;28;20460;-40
2023/12/03 01:41:56;;;;;;;12.90;3.92;;;;;;;;;;5051461;28;20024;-40
2023/12/03 01:44:22;;;;;;;7.03;3.50;;;;;;;;;;5047813;28;20142;-40
2023/12/03 01:46:48;;;;;;;7.03;3.25;;;;;;;;;;5062125;28;20058;-40
2023/12/03 01:49:14;;;;;;;8.07;4.45;;;;;;;;;;5064572;28;20024;-39
2023/12/03 01:51:39;;;;;;;9.07;4.25;;;;;;;;;;5058812;28;20051;-41
2023/12/03 01:54:05;;;;;;;5.55;3.03;;;;;;;;;;5067440;28;20079;-39
2023/12/03 01:56:30;;;;;;;7.93;3.58;;;;;;;;;;5064345;28;20021;-40
2023/12/03 01:58:56;;;;;;;6.97;3.58;;;;;;;;;;5065909;28;20450;-40
2023/12/03 02:01:21;;;;;;;8.65;3.75;;;;;;;;;;5045239;28;20113;-39
2023/12/03 02:03:46;;;;;;;10.50;4.10;;;;;;;;;;5063581;28;20491;-41
2023/12/03 02:06:12;;;;;;;7.88;3.70;;;;;;;;;;5065113;28;20091;-40
2023/12/03 02:08:37;;;;;;;8.07;3.85;;;;;;;;;;5065419;28;20375;-40
2023/12/03 02:11:03;;;;;;;6.07;3.75;;;;;;;;;;5063640;28;20111;-39
2023/12/03 02:13:31;;;;;;;7.28;2.95;;;;;;;;;;5064162;28;20024;-41
2023/12/03 02:15:56;;;;;;;7.90;4.22;;;;;;;;;;5061876;28;20082;-41
2023/12/03 02:18:22;;;;;;;6.90;3.55;;;;;;;;;;5065114;28;20013;-40
2023/12/03 02:20:47;;;;;;;6.68;2.90;;;;;;;;;;5063511;28;20028;-39
2023/12/03 02:23:14;;;;;;;6.95;3.30;;;;;;;;;;5060441;28;20025;-41
2023/12/03 02:25:40;;;;;;;8.13;4.03;;;;;;;;;;5051808;28;20119;-40
2023/12/03 02:28:05;;;;;;;8.50;3.63;;;;;;;;;;5065788;28;20108;-40
2023/12/03 02:30:30;;;;;;;6.40;3.42;;;;;;;;;;5060082;28;20021;-40
2023/12/03 02:32:55;;;;;;;6.68;3.08;;;;;;;;;;5065380;28;20111;-40
2023/12/03 02:35:21;;;;;;;5.40;3.13;;;;;;;;;;5051371;28;20039;-41
2023/12/03 02:37:46;;;;;;;5.07;2.58;;;;;;;;;;5065577;28;20028;-39
2023/12/03 02:40:11;;;;;;;4.18;1.83;;;;;;;;;;5064566;28;20421;-40
2023/12/03 02:42:37;;;;;;;5.70;2.60;;;;;;;;;;5044648;28;20032;-40
2023/12/03 02:45:03;;;;;;;9.32;2.55;;;;;;;;;;5067158;28;20025;-38
2023/12/03 02:47:28;;;;;;;7.30;2.97;;;;;;;;;;5062827;28;20027;-41
2023/12/03 02:49:53;;;;;;;6.57;3.17;;;;;;;;;;5051672;28;20033;-40
2023/12/03 02:52:18;;;;;;;9.25;2.63;;;;;;;;;;5068492;28;20025;-40
2023/12/03 02:54:44;;;;;;;6.35;2.58;;;;;;;;;;5067040;28;20503;-41
2023/12/03 02:57:09;;;;;;;4.53;1.92;;;;;;;;;;5068493;28;20086;-40
2023/12/03 02:59:34;;;;;;;4.97;2.25;;;;;;;;;;5068194;28;20033;-39
2023/12/03 03:02:00;;;;;;;2.40;1.73;;;;;;;;;;5054504;28;20494;-41
2023/12/03 03:04:25;;;;;;;5.97;2.65;;;;;;;;;;5068652;28;20048;-40
2023/12/03 03:06:50;;;;;;;4.25;2.30;;;;;;;;;;5052269;28;20039;-40
2023/12/03 03:09:15;;;;;;;7.28;3.28;;;;;;;;;;5049086;28;20028;-41
2023/12/03 03:11:41;;;;;;;6.68;2.42;;;;;;;;;;5048716;28;20020;-41
2023/12/03 03:14:08;;;;;;;6.38;2.45;;;;;;;;;;5068780;28;20107;-41
2023/12/03 03:16:34;;;;;;;5.15;2.50;;;;;;;;;;5068900;28;20028;-39
2023/12/03 03:19:00;;;;;;;3.92;2.22;;;;;;;;;;5065466;28;20027;-40
2023/12/03 03:21:25;;;;;;;3.78;1.92;;;;;;;;;;5053510;28;20025;-41
2023/12/03 03:23:50;;;;;;;5.38;2.90;;;;;;;;;;5064720;28;20047;-40
2023/12/03 03:26:16;;;;;;;5.40;2.70;;;;;;;;;;5068080;28;20032;-39
2023/12/03 03:28:41;;;;;;;5.35;2.25;;;;;;;;;;5067006;28;20021;-41
2023/12/03 03:31:06;;;;;;;3.45;1.60;;;;;;;;;;5069323;28;20099;-40
2023/12/03 03:33:31;;;;;;;5.35;2.25;;;;;;;;;;5066889;28;20020;-41
2023/12/03 03:35:57;;;;;;;6.85;3.20;;;;;;;;;;5068198;28;20638;-40
2023/12/03 03:38:22;;;;;;;4.68;2.35;;;;;;;;;;5069973;28;20021;-39
2023/12/03 03:40:47;;;;;;;6.40;2.60;;;;;;;;;;5068889;28;20025;-42
2023/12/03 03:43:14;;;;;;;4.65;2.33;;;;;;;;;;5046392;28;20025;-39
2023/12/03 03:45:39;;;;;;;4.82;2.65;;;;;;;;;;5064143;28;20021;-38
2023/12/03 03:48:04;;;;;;;7.05;2.80;;;;;;;;;;5064804;28;20412;-40
2023/12/03 03:50:30;;;;;;;5.82;2.28;;;;;;;;;;5051474;28;20616;-40
2023/12/03 03:52:55;;;;;;;4.38;2.40;;;;;;;;;;5068090;28;20574;-40
2023/12/03 03:55:20;;;;;;;7.60;2.63;;;;;;;;;;5068045;28;20041;-39
2023/12/03 03:57:46;;;;;;;6.10;2.17;;;;;;;;;;5049483;28;20039;-41
2023/12/03 04:00:11;;;;;;;3.20;1.67;;;;;;;;;;5060824;28;20071;-40
2023/12/03 04:02:36;;;;;;;7.25;3.63;;;;;;;;;;5062482;28;20031;-41
2023/12/03 04:05:02;;;;;;;9.52;2.38;;;;;;;;;;5068377;28;20024;-41
2023/12/03 04:07:28;;;;;;;6.35;3.25;;;;;;;;;;5051187;28;20016;-41
2023/12/03 04:09:53;;;;;;;7.47;3.42;;;;;;;;;;5064882;28;20033;-42
2023/12/03 04:12:18;;;;;;;7.35;3.08;;;;;;;;;;5068347;28;20549;-42
2023/12/03 04:14:44;;;;;;;7.07;3.08;;;;;;;;;;5051156;28;20081;-41
2023/12/03 04:17:09;;;;;;;8.25;2.45;;;;;;;;;;5067154;28;20020;-42
2023/12/03 04:19:35;;;;;;;8.07;3.40;;;;;;;;;;5069925;28;20493;-42
2023/12/03 04:22:00;;;;;;;6.32;3.08;;;;;;;;;;5068588;28;20021;-40
2023/12/03 04:24:26;;;;;;;4.22;2.65;;;;;;;;;;5066021;28;20028;-40
2023/12/03 04:26:51;;;;;;;7.40;3.20;;;;;;;;;;5068354;28;20047;-41
2023/12/03 04:29:16;;;;;;;5.90;2.92;;;;;;;;;;5067170;28;20100;-41
2023/12/03 04:31:42;;;;;;;7.15;2.97;;;;;;;;;;5066627;28;20025;-41
2023/12/03 04:34:07;;;;;;;8.80;3.15;;;;;;;;;;5066466;28;20028;-40
2023/12/03 04:36:33;;;;;;;7.35;3.22;;;;;;;;;;5069633;28;20090;-41
2023/12/03 04:38:58;;;;;;;6.25;2.50;;;;;;;;;;5068123;28;20020;-39
2023/12/03 04:41:23;;;;;;;7.68;3.20;;;;;;;;;;5068507;28;20402;-40
2023/12/03 04:43:49;;;;;;;6.88;3.30;;;;;;;;;;5069947;28;20078;-39
2023/12/03 04:46:14;;;;;;;5.97;2.92;;;;;;;;;;5067537;28;20029;-41
2023/12/03 04:48:40;;;;;;;4.75;2.22;;;;;;;;;;5065527;28;20028;-39
2023/12/03 04:51:06;;;;;;;9.10;3.08;;;;;;;;;;5067291;28;20371;-40
2023/12/03 04:53:32;;;;;;;7.95;3.60;;;;;;;;;;5063420;28;20021;-40
2023/12/03 04:56:00;;;;;;;6.10;2.88;;;;;;;;;;5067895;28;20082;-39
2023/12/03 04:58:26;;;;;;;7.22;2.70;;;;;;;;;;5048468;28;20012;-41
2023/12/03 05:00:51;;;;;;;6.10;3.03;;;;;;;;;;5065999;28;20028;-40
2023/12/03 05:03:17;;;;;;;4.28;2.42;;;;;;;;;;5052161;28;20024;-41
2023/12/03 05:05:42;;;;;;;8.43;3.33;;;;;;;;;;5067721;28;20086;-40
2023/12/03 05:08:07;;;;;;;6.05;2.75;;;;;;;;;;5068015;28;20039;-38
2023/12/03 05:10:33;;;;;;;5.78;2.45;;;;;;;;;;5051821;28;20036;-40
2023/12/03 05:12:58;;;;;;;5.85;3.60;;;;;;;;;;5067807;28;20043;-39
2023/12/03 05:15:23;;;;;;;3.95;2.05;;;;;;;;;;5067691;28;20084;-39
2023/12/03 05:17:49;;;;;;;6.25;3.22;;;;;;;;;;5065780;28;20027;-39
2023/12/03 05:20:14;;;;;;;4.53;2.35;;;;;;;;;;5067767;28;20479;-40
2023/12/03 05:22:40;;;;;;;8.15;3.60;;;;;;;;;;5067782;28;20494;-39
2023/12/03 05:25:05;;;;;;;6.93;2.95;;;;;;;;;;5067696;28;20021;-39
2023/12/03 05:27:31;;;;;;;9.63;3.25;;;;;;;;;;5067088;28;20016;-40
2023/12/03 05:29:56;;;;;;;5.75;3.20;;;;;;;;;;5063758;28;20391;-38
2023/12/03 05:32:21;;;;;;;6.60;3.25;;;;;;;;;;5069641;28;20027;-39
2023/12/03 05:34:47;;;;;;;4.82;2.70;;;;;;;;;;5066349;28;20040;-38
2023/12/03 05:37:12;;;;;;;8.50;3.53;;;;;;;;;;5066980;28;20024;-41
2023/12/03 05:39:38;;;;;;;7.25;3.58;;;;;;;;;;5062899;28;20021;-40
2023/12/03 05:42:03;;;;;;;9.60;4.13;;;;;;;;;;5068141;28;20127;-40
2023/12/03 05:44:29;;;;;;;8.82;4.40;;;;;;;;;;5068226;28;20031;-39
2023/12/03 05:46:54;;;;;;;6.28;2.83;;;;;;;;;;5068736;28;20386;-40
2023/12/03 05:49:27;;;;;;;7.43;4.18;;;;;;;;;;5066009;28;20032;-39
2023/12/03 05:51:52;;;;;;;8.68;3.80;;;;;;;;;;5065473;28;20095;-41
2023/12/03 05:54:17;;;;;;;8.48;4.05;;;;;;;;;;5066021;28;20040;-39
2023/12/03 05:56:47;;;;;;;9.70;4.75;;;;;;;;;;5069395;28;20025;-40
2023/12/03 05:59:12;;;;;;;8.63;4.05;;;;;;;;;;5046603;28;20021;-41
2023/12/03 06:01:38;;;;;;;11.70;4.38;;;;;;;;;;5069740;28;20533;-41
2023/12/03 06:04:06;;;;;;;11.18;5.07;;;;;;;;;;5066821;28;20016;-40
2023/12/03 06:06:31;;;;;;;9.43;4.22;;;;;;;;;;5065376;28;20035;-39
2023/12/03 06:08:57;;;;;;;10.15;4.18;;;;;;;;;;5068414;28;20041;-40
2023/12/03 06:11:22;;;;;;;10.95;4.45;;;;;;;;;;5049577;28;20103;-41
2023/12/03 06:13:47;;;;;;;10.05;5.07;;;;;;;;;;5066361;28;20024;-41
2023/12/03 06:16:15;;;;;;;10.30;4.32;;;;;;;;;;5068487;28;20016;-39
2023/12/03 06:18:40;;;;;;;12.02;5.43;;;;;;;;;;5067014;28;20031;-40
2023/12/03 06:21:07;;;;;;;19.13;9.05;;;;;;;;;;5068437;28;20017;-40
2023/12/03 06:23:32;;;;;;;8.32;4.63;;;;;;;;;;5065701;28;20037;-40
2023/12/03 06:25:57;;;;;;;15.55;6.07;;;;;;;;;;5066919;28;20036;-40
2023/12/03 06:28:23;;;;;;;11.32;5.03;;;;;;;;;;5066630;28;20507;-39
2023/12/03 06:30:48;;;;;;;12.23;5.07;;;;;;;;;;5061348;28;20029;-41
2023/12/03 06:33:14;;;;;;;13.98;6.07;;;;;;;;;;5047291;28;20036;-40
2023/12/03 06:35:40;;;;;;;14.00;5.80;;;;;;;;;;5067785;28;20383;-38
2023/12/03 06:38:06;;;;;;;9.43;5.47;;;;;;;;;;5066447;28;20013;-41
2023/12/03 06:40:31;;;;;;;10.95;6.38;;;;;;;;;;5067828;28;20021;-40
2023/12/03 06:42:56;;;;;;;13.98;5.75;;;;;;;;;;5068163;28;20044;-40
2023/12/03 06:45:22;;;;;;;14.75;7.03;;;;;;;;;;5063152;28;20416;-41
2023/12/03 06:47:47;;;;;;;15.18;5.40;;;;;;;;;;5067223;28;20021;-40
2023/12/03 06:50:12;;;;;;;10.15;4.60;;;;;;;;;;5048419;28;20021;-39
2023/12/03 06:52:37;;;;;;;15.40;6.43;;;;;;;;;;5046957;28;20434;-38
2023/12/03 06:55:03;;;;;;;15.85;6.78;;;;;;;;;;5066705;28;20422;-40
2023/12/03 06:57:28;;;;;;;12.30;6.30;;;;;;;;;;5066630;28;20036;-39
2023/12/03 06:59:53;;;;;;;9.43;3.95;;;;;;;;;;5066394;28;20025;-38
2023/12/03 07:02:19;;;;;;;12.65;6.47;;;;;;;;;;5064093;28;20044;-39
2023/12/03 07:04:44;;;;;;;19.33;7.75;;;;;;;;;;5065956;28;20039;-39
2023/12/03 07:07:09;;;;;;;15.20;6.80;;;;;;;;;;5062040;28;20029;-40
2023/12/03 07:09:35;;;;;;;19.27;7.40;;;;;;;;;;5062410;28;20031;-40
2023/12/03 07:12:00;;;;;;;14.23;6.20;;;;;;;;;;5066880;28;20029;-40
2023/12/03 07:14:25;;;;;;;12.23;6.22;;;;;;;;;;5065183;28;20121;-39
2023/12/03 07:16:50;;;;;;;16.25;7.15;;;;;;;;;;5065039;28;20448;-39
2023/12/03 07:19:16;;;;;;;14.57;6.10;;;;;;;;;;5065780;28;20032;-38
2023/12/03 07:21:41;;;;;;;15.07;6.57;;;;;;;;;;5068331;28;20024;-39
2023/12/03 07:24:07;;;;;;;18.60;6.85;;;;;;;;;;5030645;28;20096;-40
2023/12/03 07:26:33;;;;;;;15.00;7.05;;;;;;;;;;5062650;28;20394;-40
2023/12/03 07:28:58;;;;;;;15.80;7.10;;;;;;;;;;5060306;28;20032;-39
2023/12/03 07:31:23;;;;;;;19.42;7.30;;;;;;;;;;5067716;28;20112;-39
2023/12/03 07:33:49;;;;;;;18.10;7.88;;;;;;;;;;5067037;28;20108;-39
2023/12/03 07:36:14;;;;;;;16.33;7.13;;;;;;;;;;5061980;28;20036;-39
2023/12/03 07:38:39;;;;;;;16.42;7.57;;;;;;;;;;5064214;28;20060;-38
2023/12/03 07:41:11;;;;;;;18.60;8.65;;;;;;;;;;5068706;28;20020;-39
2023/12/03 07:43:37;;;;;;;21.98;9.68;;;;;;;;;;5047459;28;20053;-39
2023/12/03 07:46:02;;;;;;;15.40;7.72;;;;;;;;;;5068358;28;20052;-39
2023/12/03 07:48:27;;;;;;;16.10;5.95;;;;;;;;;;5071606;28;20032;-39
2023/12/03 07:50:52;;;;;;;16.25;6.75;;;;;;;;;;5064924;28;20462;-39
2023/12/03 07:53:18;;;;;;;17.95;10.00;;;;;;;;;;5068533;28;20024;-39
2023/12/03 07:55:43;;;;;;;18.67;8.85;;;;;;;;;;5066094;28;20044;-39
2023/12/03 07:58:09;;;;;;;14.00;7.18;;;;;;;;;;5068081;28;20013;-38
2023/12/03 08:00:35;;;;;;;25.60;8.90;;;;;;;;;;5046582;28;20021;-37
2023/12/03 08:03:00;;;;;;;15.13;6.97;;;;;;;;;;5069975;28;20024;-39
2023/12/03 08:05:25;;;;;;;14.35;6.95;;;;;;;;;;5066881;28;20375;-38
2023/12/03 08:07:51;;;;;;;15.63;7.22;;;;;;;;;;5067837;28;20468;-39
2023/12/03 08:10:16;;;;;;;18.25;7.13;;;;;;;;;;5066778;28;20025;-40
2023/12/03 08:12:41;;;;;;;13.65;7.43;;;;;;;;;;5072045;28;20029;-39
2023/12/03 08:15:06;;;;;;;16.83;7.30;;;;;;;;;;5061942;28;20036;-39
2023/12/03 08:17:32;;;;;;;15.60;7.10;;;;;;;;;;5070148;28;20024;-38
2023/12/03 08:19:57;;;;;;;17.63;7.90;;;;;;;;;;5067922;28;20017;-39
2023/12/03 08:22:22;;;;;;;19.60;8.15;;;;;;;;;;5069926;28;20025;-39
2023/12/03 08:24:48;;;;;;;18.02;7.85;;;;;;;;;;5064975;28;20100;-38
2023/12/03 08:27:13;;;;;;;18.30;8.02;;;;;;;;;;5068520;28;20064;-39
2023/12/03 08:29:38;;;;;;;16.65;8.75;;;;;;;;;;5065398;28;20021;-38
2023/12/03 08:32:03;;;;;;;19.63;7.53;;;;;;;;;;5067180;28;20052;-39
2023/12/03 08:34:29;;;;;;;12.68;6.30;;;;;;;;;;5066278;28;20455;-40
2023/12/03 08:36:55;;;;;;;16.58;7.93;;;;;;;;;;5067579;28;20028;-38
2023/12/03 08:39:20;;;;;;;21.98;8.43;;;;;;;;;;5069677;28;20024;-39
2023/12/03 08:41:46;;;;;;;19.13;8.18;;;;;;;;;;5064701;28;20464;-38
2023/12/03 08:44:11;;;;;;;15.75;6.88;;;;;;;;;;5069058;28;20024;-38
2023/12/03 08:46:36;;;;;;;15.43;6.55;;;;;;;;;;5067676;28;20391;-38
2023/12/03 08:49:02;;;;;;;23.52;9.60;;;;;;;;;;5065024;28;20044;-39
2023/12/03 08:51:27;;;;;;;14.98;6.82;;;;;;;;;;5066913;28;20483;-39
2023/12/03 08:53:52;;;;;;;18.83;8.35;;;;;;;;;;5069256;28;20029;-38
2023/12/03 08:56:17;;;;;;;18.88;8.07;;;;;;;;;;5069780;28;20487;-38
2023/12/03 08:58:43;;;;;;;19.77;9.35;;;;;;;;;;5066193;28;20020;-38
2023/12/03 09:01:09;;;;;;;16.42;7.65;;;;;;;;;;5049625;28;20048;-39
2023/12/03 09:03:35;;;;;;;17.13;8.45;;;;;;;;;;5065428;28;20056;-40
2023/12/03 09:06:00;;;;;;;18.80;8.07;;;;;;;;;;5066088;28;20084;-40
2023/12/03 09:08:26;;;;;;;16.25;7.22;;;;;;;;;;5064964;28;20058;-38
2023/12/03 09:10:51;;;;;;;15.85;7.50;;;;;;;;;;5051937;28;20028;-39
2023/12/03 09:13:16;;;;;;;15.65;7.40;;;;;;;;;;5070431;28;20036;-39
2023/12/03 09:15:42;;;;;;;17.58;7.78;;;;;;;;;;5066782;28;20024;-39
2023/12/03 09:18:07;;;;;;;16.55;7.28;;;;;;;;;;5064794;28;20048;-41
2023/12/03 09:20:32;;;;;;;13.20;6.60;;;;;;;;;;5067470;28;20427;-38
2023/12/03 09:22:58;;;;;;;16.70;8.27;;;;;;;;;;5066931;28;20013;-39
2023/12/03 09:25:23;;;;;;;21.13;8.18;;;;;;;;;;5068820;28;20025;-39
2023/12/03 09:27:48;;;;;;;15.25;7.82;;;;;;;;;;5065652;28;20009;-39
2023/12/03 09:30:14;;;;;;;13.38;7.78;;;;;;;;;;5066258;28;20017;-38
2023/12/03 09:32:39;;;;;;;14.95;6.57;;;;;;;;;;5069949;28;20028;-40
2023/12/03 09:35:04;;;;;;;22.77;8.63;;;;;;;;;;5061297;28;20033;-39
2023/12/03 09:37:30;;;;;;;15.18;7.32;;;;;;;;;;5063155;28;20463;-39
2023/12/03 09:39:57;;;;;;;12.75;6.82;;;;;;;;;;5063874;28;20073;-40
2023/12/03 09:42:24;;;;;;;11.57;5.72;;;;;;;;;;5064724;28;20013;-40
2023/12/03 09:45:09;;;;;;;16.27;7.53;;;;;;;;;;5055454;28;20036;-38
2023/12/03 09:47:35;;;;;;;12.98;6.82;;;;;;;;;;5064086;28;20036;-37
2023/12/03 09:50:02;;;;;;;15.95;9.15;;;;;;;;;;5067472;28;20028;-38
2023/12/03 09:52:28;;;;;;;19.35;8.93;;;;;;;;;;5066264;28;20510;-40
2023/12/03 09:54:58;;;;;;;18.20;8.30;;;;;;;;;;5068853;28;20470;-39
2023/12/03 09:57:24;;;;;;;17.13;8.30;;;;;;;;;;5064751;28;20111;-40
2023/12/03 09:59:51;;;;;;;12.90;6.75;;;;;;;;;;5065567;28;20026;-40
2023/12/03 10:02:20;;;;;;;16.05;7.85;;;;;;;;;;5065820;28;20025;-39
2023/12/03 10:04:45;;;;;;;18.00;8.00;;;;;;;;;;5064453;28;20103;-38
2023/12/03 10:07:11;;;;;;;17.80;7.22;;;;;;;;;;5065572;28;20111;-39
2023/12/03 10:09:38;;;;;;;16.45;7.72;;;;;;;;;;5067085;28;20036;-40
2023/12/03 10:12:05;;;;;;;14.73;6.50;;;;;;;;;;5066904;28;20399;-40
2023/12/03 10:14:30;;;;;;;17.20;7.70;;;;;;;;;;5067720;28;20099;-40
2023/12/03 10:16:56;;;;;;;18.33;8.80;;;;;;;;;;5065473;28;20108;-40
2023/12/03 10:19:22;;;;;;;10.68;6.20;;;;;;;;;;5065190;28;20036;-40
2023/12/03 10:21:47;;;;;;;15.80;7.70;;;;;;;;;;5061407;28;20072;-40
2023/12/03 10:24:13;;;;;;;16.20;7.63;;;;;;;;;;5067143;28;20025;-39
2023/12/03 10:26:48;;;;;;;14.07;7.13;;;;;;;;;;5060690;28;20561;-41
2023/12/03 10:29:15;;;;;;;18.38;8.00;;;;;;;;;;5047062;28;20032;-38
2023/12/03 10:31:41;;;;;;;15.23;6.65;;;;;;;;;;5055196;28;20033;-41
2023/12/03 10:34:07;;;;;;;19.27;7.82;;;;;;;;;;5061433;28;20403;-40
2023/12/03 10:36:32;;;;;;;13.00;6.95;;;;;;;;;;5066048;28;20074;-42
2023/12/03 10:38:57;;;;;;;20.05;8.63;;;;;;;;;;5066221;28;20024;-40
2023/12/03 10:41:23;;;;;;;16.60;7.60;;;;;;;;;;5062192;28;20029;-41
2023/12/03 10:43:50;;;;;;;23.42;8.73;;;;;;;;;;5066851;28;20024;-41
2023/12/03 10:46:16;;;;;;;17.83;7.28;;;;;;;;;;5063852;28;20099;-38
2023/12/03 10:48:42;;;;;;;21.35;7.75;;;;;;;;;;5062985;28;20028;-40
2023/12/03 10:51:08;;;;;;;16.35;7.03;;;;;;;;;;5050034;28;20086;-40
2023/12/03 10:53:34;;;;;;;17.88;7.90;;;;;;;;;;5057970;28;20031;-41
2023/12/03 10:56:00;;;;;;;17.50;8.32;;;;;;;;;;5051773;28;20517;-41
2023/12/03 10:58:25;;;;;;;18.70;8.73;;;;;;;;;;5055499;28;20486;-39
2023/12/03 11:00:57;;;;;;;20.30;8.82;;;;;;;;;;5059103;28;20103;-40
2023/12/03 11:03:40;;;;;;;18.38;8.27;;;;;;;;;;5062942;28;20044;-41
2023/12/03 11:06:07;;;;;;;17.63;8.40;;;;;;;;;;5066644;28;20062;-42
2023/12/03 11:08:33;;;;;;;14.93;7.22;;;;;;;;;;5048093;28;20029;-38
2023/12/03 11:10:59;;;;;;;17.15;8.45;;;;;;;;;;5070238;28;20025;-39
2023/12/03 11:13:26;;;;;;;15.57;7.88;;;;;;;;;;5064867;28;20372;-41
2023/12/03 11:15:52;;;;;;;16.38;7.68;;;;;;;;;;5068078;28;20365;-42
2023/12/03 11:18:19;;;;;;;27.35;11.70;;;;;;;;;;5064958;28;20023;-40
2023/12/03 11:20:46;;;;;;;18.38;7.35;;;;;;;;;;5070830;28;20025;-41
2023/12/03 11:23:17;;;;;;;21.05;8.75;;;;;;;;;;5066708;28;20112;-39
2023/12/03 11:26:05;;;;;;;16.70;8.70;;;;;;;;;;5070491;28;20032;-41
2023/12/03 11:28:31;;;;;;;14.77;7.10;;;;;;;;;;5043228;28;20064;-42
2023/12/03 11:30:57;;;;;;;15.20;7.43;;;;;;;;;;5061850;28;20074;-40
2023/12/03 11:33:22;;;;;;;12.20;6.03;;;;;;;;;;5051507;28;20158;-40
2023/12/03 11:35:50;;;;;;;14.23;7.45;;;;;;;;;;5064380;28;20028;-37
2023/12/03 11:38:21;;;;;;;16.63;7.50;;;;;;;;;;5041900;28;20032;-40
2023/12/03 11:40:47;;;;;;;18.63;7.53;;;;;;;;;;5045244;28;20028;-40
2023/12/03 11:43:22;;;;;;;22.90;8.68;;;;;;;;;;5062256;28;20031;-40
2023/12/03 11:45:48;;;;;;;14.32;6.68;;;;;;;;;;5068011;28;20061;-39
2023/12/03 11:48:14;;;;;;;15.07;7.18;;;;;;;;;;5031283;28;20028;-39
2023/12/03 11:50:39;;;;;;;15.25;6.68;;;;;;;;;;5064332;28;20021;-40
2023/12/03 11:53:05;;;;;;;12.63;6.40;;;;;;;;;;5061075;28;20031;-40
2023/12/03 11:55:32;;;;;;;16.60;7.88;;;;;;;;;;5063339;28;20161;-37
2023/12/03 11:57:57;;;;;;;10.10;4.38;;;;;;;;;;5060555;28;20167;-42
2023/12/03 12:00:24;;;;;;;16.75;6.70;;;;;;;;;;5069631;28;20044;-39
2023/12/03 12:02:50;;;;;;;19.80;6.32;;;;;;;;;;5065958;28;20020;-40
2023/12/03 12:05:15;;;;;;;14.75;7.30;;;;;;;;;;5066377;28;20033;-40
2023/12/03 12:07:40;;;;;;;12.85;6.45;;;;;;;;;;5057566;28;20554;-39
2023/12/03 12:10:06;;;;;;;16.02;7.28;;;;;;;;;;5055568;28;20467;-39
2023/12/03 12:12:31;;;;;;;16.10;6.97;;;;;;;;;;5034102;28;20028;-41
2023/12/03 12:14:57;;;;;;;20.17;8.27;;;;;;;;;;5043138;28;20029;-41
2023/12/03 12:17:22;;;;;;;15.30;6.57;;;;;;;;;;5067893;28;20074;-40
2023/12/03 12:19:48;;;;;;;16.85;7.25;;;;;;;;;;5067199;28;20031;-41
2023/12/03 12:22:13;;;;;;;14.77;8.30;;;;;;;;;;5051521;28;20452;-38
2023/12/03 12:24:39;;;;;;;14.45;5.88;;;;;;;;;;5065103;28;20041;-39
2023/12/03 12:27:04;;;;;;;12.82;6.63;;;;;;;;;;5049952;28;20074;-39
2023/12/03 12:29:30;;;;;;;18.13;7.43;;;;;;;;;;5068128;28;20111;-39
2023/12/03 12:31:55;;;;;;;16.92;7.07;;;;;;;;;;5068285;28;20057;-39
2023/12/03 12:34:23;;;;;;;13.73;6.93;;;;;;;;;;5066836;28;20048;-39
2023/12/03 12:36:48;;;;;;;17.35;7.38;;;;;;;;;;5063501;28;20062;-39
2023/12/03 12:39:26;;;;;;;13.98;5.88;;;;;;;;;;5064090;28;20048;-39
2023/12/03 12:41:51;;;;;;;15.65;7.15;;;;;;;;;;5063879;28;20052;-39
2023/12/03 12:44:18;;;;;;;16.08;7.18;;;;;;;;;;5066527;28;20059;-39
2023/12/03 12:46:52;;;;;;;15.07;7.50;;;;;;;;;;5068766;28;20111;-39
2023/12/03 12:49:18;;;;;;;9.38;4.60;;;;;;;;;;5066347;28;20021;-39
2023/12/03 12:51:43;;;;;;;17.75;7.63;;;;;;;;;;5069392;28;20494;-39
2023/12/03 12:54:09;;;;;;;19.08;8.50;;;;;;;;;;5055877;28;20055;-39
2023/12/03 12:56:34;;;;;;;15.55;8.15;;;;;;;;;;5067786;28;20107;-38
2023/12/03 12:58:59;;;;;;;12.18;5.70;;;;;;;;;;5065504;28;20028;-39
2023/12/03 13:01:25;;;;;;;9.38;3.97;;;;;;;;;;5064908;28;20035;-39
2023/12/03 13:03:50;;;;;;;14.05;6.65;;;;;;;;;;5063476;28;20025;-39
2023/12/03 13:06:16;;;;;;;18.40;7.65;;;;;;;;;;5066359;28;20062;-40
2023/12/03 13:08:41;;;;;;;16.15;7.15;;;;;;;;;;5058715;28;20028;-40
2023/12/03 13:11:07;;;;;;;17.85;9.23;;;;;;;;;;5062325;28;20067;-40
2023/12/03 13:13:32;;;;;;;13.60;6.30;;;;;;;;;;5041998;28;20020;-40
2023/12/03 13:15:58;;;;;;;17.30;6.90;;;;;;;;;;5063635;28;20060;-39
2023/12/03 13:18:23;;;;;;;13.25;7.25;;;;;;;;;;5063613;28;20036;-39
2023/12/03 13:20:48;;;;;;;14.32;5.93;;;;;;;;;;5042998;28;20025;-39
2023/12/03 13:23:14;;;;;;;15.68;6.30;;;;;;;;;;5064161;28;20112;-39
2023/12/03 13:25:39;;;;;;;21.38;7.07;;;;;;;;;;5065394;28;20654;-40
2023/12/03 13:28:04;;;;;;;11.82;6.45;;;;;;;;;;5062999;28;20051;-39
2023/12/03 13:30:30;;;;;;;16.15;7.30;;;;;;;;;;5064819;28;20485;-39
2023/12/03 13:32:55;;;;;;;12.68;6.32;;;;;;;;;;5062317;28;20107;-39
2023/12/03 13:35:21;;;;;;;14.70;5.88;;;;;;;;;;5062361;28;20040;-41
2023/12/03 13:37:46;;;;;;;19.35;7.40;;;;;;;;;;5060744;28;20509;-41
2023/12/03 13:40:12;;;;;;;13.52;5.63;;;;;;;;;;5065196;28;20059;-40
2023/12/03 13:42:38;;;;;;;17.80;7.18;;;;;;;;;;5066667;28;20020;-39
2023/12/03 13:45:04;;;;;;;15.68;5.55;;;;;;;;;;5059262;28;20025;-40
2023/12/03 13:47:29;;;;;;;14.25;6.18;;;;;;;;;;5059496;28;20093;-40
2023/12/03 13:49:55;;;;;;;14.57;6.07;;;;;;;;;;5050491;28;20020;-39
2023/12/03 13:52:20;;;;;;;11.95;5.90;;;;;;;;;;5059812;28;20090;-40
2023/12/03 13:54:47;;;;;;;13.43;6.82;;;;;;;;;;5062130;28;20036;-39
2023/12/03 13:57:12;;;;;;;9.63;5.70;;;;;;;;;;5065094;28;20070;-40
2023/12/03 13:59:37;;;;;;;13.95;6.30;;;;;;;;;;5064941;28;20025;-40
2023/12/03 14:02:03;;;;;;;10.52;5.65;;;;;;;;;;5068364;28;20029;-45
2023/12/03 14:04:28;;;;;;;15.30;7.75;;;;;;;;;;5065895;28;20460;-40
2023/12/03 14:06:53;;;;;;;13.52;6.40;;;;;;;;;;5064796;28;20043;-39
2023/12/03 14:09:19;;;;;;;12.40;5.57;;;;;;;;;;5064019;28;20024;-39
2023/12/03 14:11:44;;;;;;;15.90;6.82;;;;;;;;;;5066297;28;20478;-41
2023/12/03 14:14:10;;;;;;;15.23;6.57;;;;;;;;;;5047568;28;20028;-41
2023/12/03 14:16:35;;;;;;;17.00;7.07;;;;;;;;;;5063898;28;20017;-37
2023/12/03 14:19:00;;;;;;;12.32;6.00;;;;;;;;;;5066193;28;20021;-40
2023/12/03 14:21:27;;;;;;;10.35;5.18;;;;;;;;;;5066184;28;20095;-38
2023/12/03 14:23:52;;;;;;;13.77;5.72;;;;;;;;;;5066888;28;20020;-39